createdAt,value
2023-12-18T00:00:49.741Z,99.90
2023-12-18T00:03:17.661Z,99.90
2023-12-18T00:05:45.243Z,99.90
2023-12-18T00:08:12.673Z,99.90
2023-12-18T00:10:40.301Z,99.90
2023-12-18T00:13:07.500Z,99.90
2023-12-18T00:15:35.036Z,99.90
2023-12-18T00:18:02.452Z,99.90
2023-12-18T00:20:29.573Z,99.90
2023-12-18T00:22:56.583Z,99.90
2023-12-18T00:25:23.857Z,99.90
2023-12-18T00:27:51.900Z,99.90
2023-12-18T00:30:19.771Z,99.90
2023-12-18T00:32:46.904Z,99.90
2023-12-18T00:35:14.148Z,99.90
2023-12-18T00:37:41.646Z,99.90
2023-12-18T00:40:09.868Z,99.90
2023-12-18T00:42:38.148Z,99.90
2023-12-18T00:45:07.069Z,99.90
2023-12-18T00:47:34.523Z,99.90
2023-12-18T00:50:03.865Z,99.90
2023-12-18T00:52:32.456Z,99.90
2023-12-18T00:54:59.489Z,99.90
2023-12-18T00:57:26.795Z,99.90
2023-12-18T00:59:54.199Z,99.90
2023-12-18T01:02:21.440Z,99.90
2023-12-18T01:04:48.547Z,99.90
2023-12-18T01:07:16.076Z,99.90
2023-12-18T01:09:43.547Z,99.90
2023-12-18T01:12:11.008Z,99.90
2023-12-18T01:14:38.345Z,99.90
2023-12-18T01:17:05.714Z,99.90
2023-12-18T01:19:33.021Z,99.90
2023-12-18T01:22:00.389Z,99.90
2023-12-18T01:24:27.986Z,99.90
2023-12-18T01:26:55.442Z,99.90
2023-12-18T01:29:22.818Z,99.90
2023-12-18T01:31:49.868Z,99.90
2023-12-18T01:34:17.067Z,1.00
2023-12-18T01:36:44.326Z,1.00
2023-12-18T01:39:11.402Z,1.00
2023-12-18T01:41:38.528Z,1.00
2023-12-18T01:44:05.834Z,1.00
2023-12-18T01:46:36.647Z,1.00
2023-12-18T01:49:04.082Z,1.00
2023-12-18T01:51:31.683Z,1.00
2023-12-18T01:54:00.299Z,1.00
2023-12-18T01:56:31.985Z,1.00
2023-12-18T01:59:00.641Z,1.00
2023-12-18T02:01:29.416Z,1.00
2023-12-18T02:03:57.544Z,1.00
2023-12-18T02:06:25.372Z,1.00
2023-12-18T02:08:53.183Z,1.00
2023-12-18T02:11:21.131Z,1.00
2023-12-18T02:13:48.584Z,1.00
2023-12-18T02:16:15.851Z,1.00
2023-12-18T02:18:47.493Z,1.00
2023-12-18T02:21:23.932Z,1.00
2023-12-18T02:23:52.146Z,1.00
2023-12-18T02:26:20.297Z,1.00
2023-12-18T02:28:47.810Z,1.00
2023-12-18T02:31:16.398Z,1.00
2023-12-18T02:33:49.848Z,1.00
2023-12-18T02:36:17.912Z,1.00
2023-12-18T02:38:45.112Z,1.00
2023-12-18T02:41:12.173Z,1.00
2023-12-18T02:43:39.276Z,1.00
2023-12-18T02:46:06.344Z,1.00
2023-12-18T02:48:33.643Z,1.00
2023-12-18T02:51:01.192Z,1.00
2023-12-18T02:53:28.559Z,1.00
2023-12-18T02:55:55.656Z,1.00
2023-12-18T02:58:23.892Z,1.00
2023-12-18T03:00:51.915Z,1.00
2023-12-18T03:03:20.756Z,1.00
2023-12-18T03:05:48.176Z,9.90
2023-12-18T03:08:15.423Z,8.20
2023-12-18T03:10:42.431Z,34.60
2023-12-18T03:13:09.818Z,16.60
2023-12-18T03:15:37.003Z,51.30
2023-12-18T03:18:04.449Z,26.80
2023-12-18T03:20:31.512Z,48.20
2023-12-18T03:22:58.628Z,71.80
2023-12-18T03:25:25.669Z,82.50
2023-12-18T03:27:52.808Z,94.40
2023-12-18T03:30:20.074Z,97.10
2023-12-18T03:32:47.336Z,76.50
2023-12-18T03:35:14.586Z,99.90
2023-12-18T03:37:41.728Z,99.90
2023-12-18T03:40:10.032Z,99.90
2023-12-18T03:42:39.636Z,99.90
2023-12-18T03:45:07.625Z,99.90
2023-12-18T03:47:34.717Z,99.90
2023-12-18T03:50:01.830Z,99.90
2023-12-18T03:52:28.956Z,99.90
2023-12-18T03:54:56.090Z,99.90
2023-12-18T03:57:23.230Z,99.90
2023-12-18T03:59:50.355Z,99.90
2023-12-18T04:02:17.359Z,99.90
2023-12-18T04:04:46.048Z,99.90
2023-12-18T04:07:13.345Z,99.90
2023-12-18T04:09:40.988Z,99.90
2023-12-18T04:12:08.443Z,99.90
2023-12-18T04:14:35.556Z,99.90
2023-12-18T04:17:02.589Z,99.90
2023-12-18T04:19:30.039Z,99.90
2023-12-18T04:21:57.217Z,99.90
2023-12-18T04:24:24.696Z,99.90
2023-12-18T04:26:51.873Z,99.90
2023-12-18T04:29:19.228Z,99.90
2023-12-18T04:31:46.696Z,99.90
2023-12-18T04:34:14.070Z,99.90
2023-12-18T04:36:41.454Z,99.90
2023-12-18T04:39:08.726Z,99.90
2023-12-18T04:41:35.751Z,99.90
2023-12-18T04:44:02.833Z,99.90
2023-12-18T04:46:36.553Z,99.90
2023-12-18T04:49:05.123Z,99.90
2023-12-18T04:51:32.794Z,99.90
2023-12-18T04:54:01.232Z,99.90
2023-12-18T04:56:28.646Z,99.90
2023-12-18T04:58:55.742Z,99.90
2023-12-18T05:01:22.918Z,99.90
2023-12-18T05:03:50.414Z,99.90
2023-12-18T05:06:23.297Z,99.90
2023-12-18T05:08:51.524Z,99.90
2023-12-18T05:11:23.442Z,99.90
2023-12-18T05:13:50.929Z,99.90
2023-12-18T05:16:21.924Z,99.90
2023-12-18T05:18:50.249Z,99.90
2023-12-18T05:21:17.598Z,99.90
2023-12-18T05:23:48.989Z,1.00
2023-12-18T05:26:16.500Z,99.90
2023-12-18T05:28:43.813Z,99.90
2023-12-18T05:31:12.328Z,99.90
2023-12-18T05:33:39.718Z,99.90
2023-12-18T05:36:08.545Z,1.00
2023-12-18T05:38:35.656Z,99.90
2023-12-18T05:41:03.105Z,99.90
2023-12-18T05:43:30.281Z,99.90
2023-12-18T05:45:57.548Z,99.90
2023-12-18T05:48:24.709Z,99.90
2023-12-18T05:50:51.880Z,99.90
2023-12-18T05:53:19.250Z,99.90
2023-12-18T05:55:46.709Z,99.90
2023-12-18T05:58:13.871Z,99.90
2023-12-18T06:00:41.137Z,99.90
2023-12-18T06:03:08.373Z,99.90
2023-12-18T06:05:35.536Z,99.90
2023-12-18T06:08:02.811Z,99.90
2023-12-18T06:10:30.129Z,99.90
2023-12-18T06:12:57.636Z,99.90
2023-12-18T06:15:24.956Z,99.90
2023-12-18T06:17:52.896Z,99.90
2023-12-18T06:20:20.266Z,99.90
2023-12-18T06:22:47.523Z,99.90
2023-12-18T06:25:14.632Z,99.90
2023-12-18T06:27:44.864Z,99.90
2023-12-18T06:30:12.821Z,99.90
2023-12-18T06:32:40.388Z,99.90
2023-12-18T06:35:08.614Z,99.90
2023-12-18T06:37:35.741Z,1.00
2023-12-18T06:40:03.605Z,99.90
2023-12-18T06:42:30.985Z,99.90
2023-12-18T06:44:58.210Z,1.00
2023-12-18T06:47:25.573Z,1.00
2023-12-18T06:49:52.672Z,1.00
2023-12-18T06:52:19.958Z,1.00
2023-12-18T06:54:47.419Z,1.00
2023-12-18T06:57:14.732Z,1.00
2023-12-18T06:59:41.831Z,1.00
2023-12-18T07:02:09.104Z,1.00
2023-12-18T07:04:36.275Z,1.00
2023-12-18T07:07:03.554Z,1.00
2023-12-18T07:09:30.989Z,1.00
2023-12-18T07:11:58.317Z,1.00
2023-12-18T07:14:25.941Z,1.00
2023-12-18T07:16:56.497Z,1.00
2023-12-18T07:19:24.247Z,1.00
2023-12-18T07:21:51.386Z,1.00
2023-12-18T07:24:18.573Z,1.00
2023-12-18T07:26:45.960Z,1.00
2023-12-18T07:29:13.023Z,1.00
2023-12-18T07:31:40.480Z,1.00
2023-12-18T07:34:08.165Z,1.00
2023-12-18T07:36:37.210Z,1.00
2023-12-18T07:39:04.450Z,1.00
2023-12-18T07:41:32.289Z,1.00
2023-12-18T07:43:59.553Z,1.00
2023-12-18T07:46:28.252Z,1.00
2023-12-18T07:48:56.087Z,1.00
2023-12-18T07:51:23.664Z,1.00
2023-12-18T07:53:51.340Z,1.00
2023-12-18T07:56:18.860Z,1.00
2023-12-18T07:58:46.570Z,1.00
2023-12-18T08:01:16.869Z,1.00
2023-12-18T08:03:45.380Z,1.00
2023-12-18T08:06:12.569Z,1.00
2023-12-18T08:08:39.677Z,1.00
2023-12-18T08:11:06.830Z,1.00
2023-12-18T08:13:39.662Z,1.00
2023-12-18T08:16:08.296Z,1.00
2023-12-18T08:18:35.737Z,1.00
2023-12-18T08:21:03.083Z,1.00
2023-12-18T08:23:30.267Z,1.00
2023-12-18T08:25:57.922Z,1.00
2023-12-18T08:28:25.298Z,1.00
2023-12-18T08:30:52.504Z,1.00
2023-12-18T08:33:19.801Z,1.00
2023-12-18T08:35:47.105Z,1.00
2023-12-18T08:38:14.932Z,1.00
2023-12-18T08:40:42.380Z,1.00
2023-12-18T08:43:09.760Z,1.00
2023-12-18T08:45:38.067Z,1.00
2023-12-18T08:48:06.033Z,1.00
2023-12-18T08:50:33.164Z,1.00
2023-12-18T08:53:01.127Z,1.00
2023-12-18T08:55:28.317Z,1.00
2023-12-18T08:57:55.514Z,1.00
2023-12-18T09:00:23.487Z,1.00
2023-12-18T09:02:50.573Z,99.90
2023-12-18T09:05:17.830Z,99.90
2023-12-18T09:07:44.806Z,99.90
2023-12-18T09:10:12.875Z,99.90
2023-12-18T09:12:40.505Z,99.90
2023-12-18T09:15:08.479Z,99.90
2023-12-18T09:17:36.245Z,99.90
2023-12-18T09:20:04.240Z,99.90
2023-12-18T09:22:31.296Z,99.90
2023-12-18T09:24:58.432Z,99.90
2023-12-18T09:27:25.599Z,99.90
2023-12-18T09:29:52.730Z,99.90
2023-12-18T09:32:19.966Z,99.90
2023-12-18T09:34:47.800Z,99.90
2023-12-18T09:37:15.127Z,99.90
2023-12-18T09:39:43.115Z,99.90
2023-12-18T09:42:16.595Z,99.90
2023-12-18T09:44:48.131Z,99.90
2023-12-18T09:47:15.487Z,99.90
2023-12-18T09:49:42.736Z,99.90
2023-12-18T09:52:12.337Z,99.90
2023-12-18T09:54:43.799Z,99.90
2023-12-18T09:57:13.805Z,99.90
2023-12-18T09:59:41.223Z,99.90
2023-12-18T10:02:11.094Z,99.90
2023-12-18T10:04:42.869Z,99.90
2023-12-18T10:07:09.936Z,99.90
2023-12-18T10:09:37.618Z,99.90
2023-12-18T10:12:05.333Z,99.90
2023-12-18T10:14:32.527Z,99.90
2023-12-18T10:17:00.452Z,99.90
2023-12-18T10:19:30.911Z,99.90
2023-12-18T10:21:59.059Z,99.90
2023-12-18T10:24:27.087Z,99.90
2023-12-18T10:26:54.248Z,99.90
2023-12-18T10:29:21.435Z,99.90
2023-12-18T10:31:49.003Z,99.90
2023-12-18T10:34:19.117Z,99.90
2023-12-18T10:36:47.635Z,93.50
2023-12-18T10:39:20.179Z,99.90
2023-12-18T10:41:54.819Z,96.40
2023-12-18T10:44:24.500Z,99.90
2023-12-18T10:46:52.031Z,99.90
2023-12-18T10:49:21.654Z,99.90
2023-12-18T10:51:51.273Z,99.90
2023-12-18T10:54:19.290Z,99.90
2023-12-18T10:56:49.020Z,65.60
2023-12-18T10:59:19.716Z,71.80
2023-12-18T11:01:47.672Z,99.90
2023-12-18T11:04:15.071Z,99.90
2023-12-18T11:06:42.867Z,41.80
2023-12-18T11:09:10.094Z,98.70
2023-12-18T11:11:38.187Z,99.90
2023-12-18T11:14:29.074Z,96.50
2023-12-18T11:17:24.122Z,99.90
2023-12-18T11:20:24.226Z,29.40
2023-12-18T11:22:56.835Z,93.80
2023-12-18T11:25:50.477Z,99.90
2023-12-18T11:28:18.349Z,67.30
2023-12-18T11:30:46.033Z,99.90
2023-12-18T11:33:16.328Z,99.90
2023-12-18T11:35:50.062Z,99.90
2023-12-18T11:38:20.323Z,99.90
2023-12-18T11:40:51.627Z,99.90
2023-12-18T11:43:40.448Z,99.90
2023-12-18T11:46:16.946Z,99.90
2023-12-18T11:48:47.671Z,99.90
2023-12-18T11:51:17.029Z,96.70
2023-12-18T11:53:44.243Z,40.80
2023-12-18T11:56:13.237Z,73.20
2023-12-18T11:58:43.739Z,95.70
2023-12-18T12:01:11.531Z,54.30
2023-12-18T12:03:41.537Z,1.00
2023-12-18T12:06:09.858Z,1.00
2023-12-18T12:08:51.926Z,33.10
2023-12-18T12:11:20.393Z,6.80
2023-12-18T12:13:49.179Z,1.00
2023-12-18T12:16:19.649Z,3.10
2023-12-18T12:18:51.680Z,1.00
2023-12-18T12:21:20.074Z,1.00
2023-12-18T12:23:49.540Z,6.10
2023-12-18T12:26:24.357Z,1.00
2023-12-18T12:28:51.463Z,1.00
2023-12-18T12:31:20.076Z,1.00
2023-12-18T12:33:50.179Z,1.00
2023-12-18T12:36:22.376Z,1.00
2023-12-18T12:38:49.943Z,1.00
2023-12-18T12:41:17.968Z,1.00
2023-12-18T12:43:46.128Z,1.00
2023-12-18T12:46:17.250Z,1.00
2023-12-18T12:48:49.638Z,1.00
2023-12-18T12:51:19.813Z,1.00
2023-12-18T12:53:47.450Z,1.00
2023-12-18T12:56:14.907Z,1.00
2023-12-18T12:58:41.941Z,1.00
2023-12-18T13:01:09.379Z,1.00
2023-12-18T13:03:37.315Z,1.00
2023-12-18T13:06:05.171Z,1.00
2023-12-18T13:08:34.508Z,1.00
2023-12-18T13:11:05.915Z,1.00
2023-12-18T13:13:33.507Z,1.00
2023-12-18T13:16:00.920Z,1.00
2023-12-18T13:18:28.517Z,1.00
2023-12-18T13:20:55.621Z,1.00
2023-12-18T13:23:23.056Z,1.00
2023-12-18T13:25:51.370Z,1.00
2023-12-18T13:28:18.842Z,1.00
2023-12-18T13:30:46.069Z,1.00
2023-12-18T13:33:13.574Z,1.00
2023-12-18T13:35:40.920Z,1.00
2023-12-18T13:38:08.107Z,1.00
2023-12-18T13:40:35.272Z,1.00
2023-12-18T13:43:03.506Z,1.00
2023-12-18T13:45:30.743Z,1.00
2023-12-18T13:47:59.313Z,1.00
2023-12-18T13:50:27.719Z,1.00
2023-12-18T13:52:56.254Z,1.00
2023-12-18T13:55:23.540Z,1.00
2023-12-18T13:57:50.721Z,1.00
2023-12-18T14:00:20.863Z,1.00
2023-12-18T14:02:49.251Z,1.00
2023-12-18T14:05:16.690Z,1.00
2023-12-18T14:07:44.298Z,1.00
2023-12-18T14:10:11.634Z,1.00
2023-12-18T14:12:38.846Z,1.00
2023-12-18T14:15:07.236Z,1.00
2023-12-18T14:17:34.712Z,1.00
2023-12-18T14:20:05.982Z,1.00
2023-12-18T14:22:34.387Z,1.00
2023-12-18T14:25:03.685Z,1.00
2023-12-18T14:27:33.213Z,1.00
2023-12-18T14:30:01.213Z,1.00
2023-12-18T14:32:28.832Z,1.00
2023-12-18T14:34:56.217Z,1.00
2023-12-18T14:37:23.571Z,1.00
2023-12-18T14:39:50.942Z,1.00
2023-12-18T14:42:18.417Z,1.00
2023-12-18T14:44:45.643Z,1.00
2023-12-18T14:47:13.208Z,1.00
2023-12-18T14:49:40.741Z,1.00
2023-12-18T14:52:08.074Z,1.00
2023-12-18T14:54:35.471Z,1.00
2023-12-18T14:57:02.667Z,1.00
2023-12-18T14:59:30.059Z,1.00
2023-12-18T15:02:00.234Z,1.00
2023-12-18T15:04:30.500Z,1.00
2023-12-18T15:06:59.735Z,1.00
2023-12-18T15:09:29.188Z,1.00
2023-12-18T15:11:57.039Z,1.00
2023-12-18T15:14:24.568Z,1.00
2023-12-18T15:16:51.803Z,51.70
2023-12-18T15:19:19.406Z,4.00
2023-12-18T15:21:46.736Z,5.90
2023-12-18T15:24:14.137Z,99.90
2023-12-18T15:26:41.760Z,97.80
2023-12-18T15:29:08.798Z,99.90
2023-12-18T15:31:36.346Z,99.90
2023-12-18T15:34:07.480Z,99.90
2023-12-18T15:36:35.109Z,99.90
2023-12-18T15:39:03.008Z,99.90
2023-12-18T15:41:33.274Z,99.90
2023-12-18T15:44:00.610Z,99.90
2023-12-18T15:46:27.819Z,99.90
2023-12-18T15:48:55.198Z,99.90
2023-12-18T15:51:22.522Z,99.90
2023-12-18T15:53:49.846Z,99.90
2023-12-18T15:56:17.085Z,99.90
2023-12-18T15:58:44.951Z,99.90
2023-12-18T16:01:13.537Z,99.90
2023-12-18T16:03:41.904Z,99.90
2023-12-18T16:06:09.234Z,1.00
2023-12-18T16:08:36.748Z,1.00
2023-12-18T16:11:04.170Z,99.90
2023-12-18T16:13:31.290Z,1.00
2023-12-18T16:15:58.669Z,1.00
2023-12-18T16:18:26.055Z,1.00
2023-12-18T16:20:53.486Z,1.00
2023-12-18T16:23:20.750Z,1.00
2023-12-18T16:25:48.233Z,1.00
2023-12-18T16:28:15.541Z,1.00
2023-12-18T16:30:52.980Z,1.00
2023-12-18T16:33:23.971Z,1.00
2023-12-18T16:35:51.293Z,1.00
2023-12-18T16:38:18.885Z,1.00
2023-12-18T16:40:50.518Z,1.00
2023-12-18T16:43:17.783Z,1.00
2023-12-18T16:45:44.990Z,9.90
2023-12-18T16:48:12.462Z,99.90
2023-12-18T16:50:39.575Z,99.90
2023-12-18T16:53:06.786Z,99.90
2023-12-18T16:55:33.957Z,99.90
2023-12-18T16:58:02.475Z,50.20
2023-12-18T17:00:33.194Z,99.90
2023-12-18T17:03:01.249Z,54.00
2023-12-18T17:05:28.861Z,95.50
2023-12-18T17:07:56.107Z,44.70
2023-12-18T17:10:23.177Z,24.00
2023-12-18T17:12:50.567Z,34.20
2023-12-18T17:15:17.932Z,25.10
2023-12-18T17:17:45.181Z,80.20
2023-12-18T17:20:12.650Z,99.90
2023-12-18T17:22:40.884Z,99.90
2023-12-18T17:25:08.482Z,76.30
2023-12-18T17:27:35.717Z,89.50
2023-12-18T17:30:03.043Z,99.90
2023-12-18T17:32:30.637Z,99.90
2023-12-18T17:35:00.193Z,99.90
2023-12-18T17:37:27.953Z,99.90
2023-12-18T17:39:55.894Z,99.90
2023-12-18T17:42:24.402Z,27.60
2023-12-18T17:44:51.626Z,80.30
2023-12-18T17:47:18.658Z,99.90
2023-12-18T17:49:46.141Z,99.90
2023-12-18T17:52:13.460Z,99.90
2023-12-18T17:54:40.694Z,99.90
2023-12-18T17:57:07.814Z,99.90
2023-12-18T17:59:35.114Z,99.90
2023-12-18T18:02:02.355Z,99.90
2023-12-18T18:04:29.814Z,99.90
2023-12-18T18:06:57.143Z,99.90
2023-12-18T18:09:24.258Z,99.90
2023-12-18T18:11:51.500Z,99.90
2023-12-18T18:14:18.783Z,99.90
2023-12-18T18:16:46.009Z,99.90
2023-12-18T18:19:15.759Z,99.90
2023-12-18T18:21:43.047Z,99.90
2023-12-18T18:24:10.206Z,99.90
2023-12-18T18:26:37.590Z,99.90
2023-12-18T18:29:05.272Z,77.70
2023-12-18T18:31:33.097Z,99.90
2023-12-18T18:34:04.973Z,71.10
2023-12-18T18:36:34.257Z,99.90
2023-12-18T18:39:03.352Z,56.00
2023-12-18T18:41:31.751Z,83.70
2023-12-18T18:43:59.401Z,66.90
2023-12-18T18:46:27.365Z,16.80
2023-12-18T18:48:54.981Z,77.00
2023-12-18T18:51:22.360Z,1.00
2023-12-18T18:53:49.540Z,1.00
2023-12-18T18:56:16.790Z,1.00
2023-12-18T18:58:44.899Z,29.60
2023-12-18T19:01:12.172Z,1.00
2023-12-18T19:03:41.935Z,1.00
2023-12-18T19:06:09.352Z,1.00
2023-12-18T19:08:36.600Z,1.00
2023-12-18T19:11:04.225Z,1.00
2023-12-18T19:13:31.342Z,1.00
2023-12-18T19:15:58.582Z,1.00
2023-12-18T19:18:26.427Z,8.40
2023-12-18T19:20:54.649Z,1.00
2023-12-18T19:23:22.501Z,1.00
2023-12-18T19:25:49.749Z,1.00
2023-12-18T19:28:17.405Z,1.00
2023-12-18T19:30:45.167Z,1.00
2023-12-18T19:33:12.775Z,1.00
2023-12-18T19:35:43.572Z,1.00
2023-12-18T19:38:10.965Z,1.00
2023-12-18T19:40:38.122Z,1.00
2023-12-18T19:43:07.271Z,1.00
2023-12-18T19:45:34.542Z,1.00
2023-12-18T19:48:01.874Z,1.00
2023-12-18T19:50:29.603Z,1.00
2023-12-18T19:52:56.850Z,1.00
2023-12-18T19:55:23.976Z,1.00
2023-12-18T19:57:51.108Z,1.00
2023-12-18T20:00:18.948Z,1.00
2023-12-18T20:02:46.574Z,1.00
2023-12-18T20:05:13.750Z,1.00
2023-12-18T20:07:41.066Z,1.00
2023-12-18T20:10:11.645Z,1.00
2023-12-18T20:12:39.179Z,1.00
2023-12-18T20:15:07.423Z,1.00
2023-12-18T20:17:35.353Z,1.00
2023-12-18T20:20:02.607Z,1.00
2023-12-18T20:22:31.375Z,1.00
2023-12-18T20:24:58.938Z,1.00
2023-12-18T20:27:28.757Z,1.00
2023-12-18T20:29:56.203Z,1.00
2023-12-18T20:32:23.733Z,1.00
2023-12-18T20:34:51.502Z,1.00
2023-12-18T20:37:18.720Z,1.00
2023-12-18T20:39:45.877Z,1.00
2023-12-18T20:42:14.084Z,1.00
2023-12-18T20:44:41.190Z,1.00
2023-12-18T20:47:08.284Z,1.00
2023-12-18T20:49:35.862Z,1.00
2023-12-18T20:52:03.469Z,1.00
2023-12-18T20:54:30.572Z,1.00
2023-12-18T20:56:58.015Z,1.00
2023-12-18T20:59:25.520Z,1.00
2023-12-18T21:01:52.676Z,1.00
2023-12-18T21:04:20.214Z,1.00
2023-12-18T21:06:48.251Z,1.00
2023-12-18T21:09:16.007Z,1.00
2023-12-18T21:11:43.373Z,1.00
2023-12-18T21:14:19.656Z,1.00
2023-12-18T21:16:53.135Z,1.00
2023-12-18T21:19:20.419Z,1.00
2023-12-18T21:21:52.017Z,1.00
2023-12-18T21:24:19.968Z,1.00
2023-12-18T21:26:47.413Z,1.00
2023-12-18T21:29:14.962Z,1.00
2023-12-18T21:31:42.310Z,1.00
2023-12-18T21:34:10.014Z,1.00
2023-12-18T21:36:39.232Z,1.00
2023-12-18T21:39:10.884Z,1.00
2023-12-18T21:41:39.326Z,1.00
2023-12-18T21:44:06.542Z,1.00
2023-12-18T21:46:33.960Z,1.00
2023-12-18T21:49:01.537Z,1.00
2023-12-18T21:51:34.994Z,1.00
2023-12-18T21:54:05.579Z,1.00
2023-12-18T21:56:32.691Z,1.00
2023-12-18T21:59:00.299Z,1.00
2023-12-18T22:01:27.517Z,1.00
2023-12-18T22:03:54.910Z,1.00
2023-12-18T22:06:23.635Z,1.00
2023-12-18T22:08:51.509Z,1.00
2023-12-18T22:11:18.809Z,1.00
2023-12-18T22:13:46.229Z,1.00
2023-12-18T22:16:15.757Z,1.00
2023-12-18T22:18:43.911Z,1.00
2023-12-18T22:21:12.125Z,1.00
2023-12-18T22:23:44.670Z,1.00
2023-12-18T22:26:13.759Z,1.00
2023-12-18T22:28:41.861Z,1.00
2023-12-18T22:31:10.545Z,1.00
2023-12-18T22:36:08.069Z,1.00
2023-12-18T22:38:35.212Z,1.00
2023-12-18T22:41:02.922Z,1.00
2023-12-18T22:43:30.219Z,1.00
2023-12-18T22:45:57.533Z,1.00
2023-12-18T22:48:28.047Z,1.00
2023-12-18T22:50:55.365Z,1.00
2023-12-18T22:53:23.614Z,1.00
2023-12-18T22:55:53.874Z,1.00
2023-12-18T22:58:22.501Z,1.00
2023-12-18T23:00:50.521Z,1.00
2023-12-18T23:03:18.427Z,1.00
2023-12-18T23:05:45.634Z,1.00
2023-12-18T23:08:13.129Z,1.00
2023-12-18T23:10:41.833Z,1.00
2023-12-18T23:13:09.476Z,1.00
2023-12-18T23:15:36.718Z,1.00
2023-12-18T23:18:04.593Z,1.00
2023-12-18T23:20:33.258Z,1.00
2023-12-18T23:23:00.679Z,1.00
2023-12-18T23:25:27.825Z,1.00
2023-12-18T23:27:55.857Z,1.00
2023-12-18T23:30:23.450Z,1.00
2023-12-18T23:32:52.029Z,1.00
2023-12-18T23:35:20.105Z,1.00
2023-12-18T23:37:47.739Z,1.00
2023-12-18T23:40:15.133Z,1.00
2023-12-18T23:42:42.750Z,1.00
2023-12-18T23:45:11.286Z,1.00
2023-12-18T23:47:38.876Z,1.00
2023-12-18T23:50:07.315Z,1.00
2023-12-18T23:52:34.628Z,1.00
2023-12-18T23:55:01.795Z,1.00
2023-12-18T23:57:29.048Z,1.00
2023-12-18T23:59:56.453Z,1.00
